Time;durP1;ratioP1;P1;durP2;ratioP2;P2;SDS_P1;SDS_P2;PMS_P1;PMS_P2;Temp;Humidity;BMP_temperature;BMP_pressure;BME280_temperature;BME280_humidity;BME280_pressure;Samples;Min_cycle;Max_cycle;Signal;HPM_P1;HPM_P2
2023/05/27 00:01:02;;;;;;;7.50;6.70;;;15.60;95.90;;;;;;4945253;28;20267;-66
2023/05/27 00:03:27;;;;;;;7.10;5.90;;;15.70;95.80;;;;;;4944580;29;20182;-65
2023/05/27 00:05:53;;;;;;;8.63;6.40;;;15.60;95.70;;;;;;4945159;28;20190;-66
2023/05/27 00:08:18;;;;;;;6.77;6.07;;;15.60;96.10;;;;;;4946760;28;20195;-66
2023/05/27 00:10:44;;;;;;;8.87;6.50;;;15.50;96.50;;;;;;4931454;28;20227;-66
2023/05/27 00:13:10;;;;;;;7.63;6.30;;;15.70;96.20;;;;;;4947440;29;20268;-66
2023/05/27 00:15:38;;;;;;;6.63;5.77;;;15.80;96.10;;;;;;4929486;29;20272;-67
2023/05/27 00:18:04;;;;;;;7.15;5.80;;;15.80;95.90;;;;;;4929395;29;20635;-66
2023/05/27 00:20:30;;;;;;;7.90;5.95;;;15.70;95.80;;;;;;4947819;28;20215;-66
2023/05/27 00:22:56;;;;;;;10.90;6.00;;;15.90;95.80;;;;;;4945044;28;20244;-66
2023/05/27 00:25:22;;;;;;;6.32;5.70;;;15.70;95.80;;;;;;4947336;29;20501;-67
2023/05/27 00:27:49;;;;;;;6.97;6.28;;;15.60;95.70;;;;;;4948103;29;20202;-65
2023/05/27 00:30:15;;;;;;;6.72;5.90;;;15.90;95.80;;;;;;4945547;28;20597;-65
2023/05/27 00:32:41;;;;;;;6.50;5.90;;;15.40;95.50;;;;;;4931192;29;20208;-65
2023/05/27 00:35:08;;;;;;;11.27;6.03;;;15.40;95.70;;;;;;4947652;29;20193;-65
2023/05/27 00:37:34;;;;;;;10.38;5.65;;;15.60;95.70;;;;;;4943342;28;20946;-65
2023/05/27 00:39:59;;;;;;;8.67;5.90;;;15.30;95.50;;;;;;4948730;28;20227;-65
2023/05/27 00:42:25;;;;;;;7.47;5.43;;;15.10;96.10;;;;;;4946518;29;20228;-65
2023/05/27 00:44:51;;;;;;;9.87;6.00;;;15.40;96.50;;;;;;4947615;28;20243;-65
2023/05/27 00:47:17;;;;;;;7.22;6.53;;;15.30;96.70;;;;;;4948267;29;20181;-65
2023/05/27 00:49:44;;;;;;;7.32;5.10;;;15.40;96.90;;;;;;4948343;29;20196;-65
2023/05/27 00:52:09;;;;;;;9.38;5.90;;;15.20;97.00;;;;;;4945378;28;20212;-65
2023/05/27 00:54:35;;;;;;;7.20;5.40;;;15.10;96.70;;;;;;4949157;29;20196;-65
2023/05/27 00:57:02;;;;;;;7.17;5.53;;;15.10;97.10;;;;;;4947978;29;20244;-65
2023/05/27 00:59:28;;;;;;;8.95;5.95;;;15.00;97.10;;;;;;4950920;28;20670;-65
2023/05/27 01:01:54;;;;;;;11.68;5.75;;;15.10;97.30;;;;;;4933335;29;20251;-65
2023/05/27 01:04:20;;;;;;;8.30;6.17;;;15.10;97.20;;;;;;4952519;29;20184;-65
2023/05/27 01:07:08;;;;;;;8.70;5.85;;;15.00;97.50;;;;;;4950613;28;20642;-65
2023/05/27 01:09:54;;;;;;;7.13;5.18;;;14.80;97.80;;;;;;4950540;28;21050;-65
2023/05/27 01:12:48;;;;;;;5.55;4.82;;;14.90;97.50;;;;;;4952333;28;20621;-65
2023/05/27 01:15:14;;;;;;;9.50;6.30;;;15.00;97.20;;;;;;4951503;28;20193;-64
2023/05/27 01:17:42;;;;;;;10.37;6.20;;;14.90;97.10;;;;;;4949734;28;20189;-65
2023/05/27 01:20:14;;;;;;;6.95;5.35;;;15.10;97.30;;;;;;4935655;29;20212;-64
2023/05/27 01:22:42;;;;;;;6.13;5.53;;;14.80;97.30;;;;;;4948470;28;20216;-64
2023/05/27 01:25:09;;;;;;;7.22;5.43;;;14.90;97.50;;;;;;4953463;28;20678;-64
2023/05/27 01:27:34;;;;;;;5.63;5.07;;;14.80;97.30;;;;;;4952232;29;20215;-64
2023/05/27 01:30:01;;;;;;;5.90;5.03;;;14.90;97.30;;;;;;4951359;29;20212;-65
2023/05/27 01:32:51;;;;;;;9.30;5.55;;;14.90;97.10;;;;;;4952929;28;20221;-66
2023/05/27 01:35:19;;;;;;;4.93;4.47;;;14.90;97.10;;;;;;4933722;29;20684;-65
2023/05/27 01:37:46;;;;;;;8.25;5.40;;;14.60;96.90;;;;;;4944905;28;20197;-65
2023/05/27 01:40:14;;;;;;;7.20;5.15;;;14.60;97.10;;;;;;4949143;28;20216;-66
2023/05/27 01:42:41;;;;;;;8.30;6.40;;;14.80;97.50;;;;;;4952579;28;20233;-65
2023/05/27 01:45:08;;;;;;;6.97;5.75;;;14.50;97.70;;;;;;4949666;28;20185;-66
2023/05/27 01:47:34;;;;;;;9.20;5.43;;;14.50;97.70;;;;;;4934270;29;20207;-65
2023/05/27 01:50:00;;;;;;;8.40;4.50;;;14.60;97.60;;;;;;4950167;29;20182;-66
2023/05/27 01:52:26;;;;;;;7.77;4.80;;;14.50;97.60;;;;;;4949923;28;20852;-65
2023/05/27 01:54:52;;;;;;;6.70;4.63;;;14.50;97.40;;;;;;4950602;28;20450;-65
2023/05/27 01:57:18;;;;;;;5.67;4.50;;;14.60;97.60;;;;;;4950957;28;20189;-65
2023/05/27 01:59:44;;;;;;;5.18;4.68;;;14.50;97.60;;;;;;4949116;28;20216;-65
2023/05/27 02:02:10;;;;;;;7.37;5.20;;;14.40;97.70;;;;;;4952012;28;20327;-66
2023/05/27 02:04:36;;;;;;;5.30;4.80;;;14.30;97.90;;;;;;4949703;29;20440;-65
2023/05/27 02:07:01;;;;;;;6.27;4.80;;;14.40;98.00;;;;;;4947954;28;20191;-66
2023/05/27 02:09:27;;;;;;;9.10;4.80;;;14.50;98.30;;;;;;4950912;28;20236;-66
2023/05/27 02:11:53;;;;;;;7.23;5.90;;;14.20;98.40;;;;;;4950573;29;20216;-64
2023/05/27 02:14:18;;;;;;;7.30;5.60;;;14.30;98.80;;;;;;4952134;28;20193;-64
2023/05/27 02:16:44;;;;;;;7.70;4.63;;;14.10;99.00;;;;;;4933115;29;20200;-64
2023/05/27 02:19:10;;;;;;;6.73;4.60;;;13.90;98.70;;;;;;4949845;29;20296;-64
2023/05/27 02:21:36;;;;;;;6.50;4.43;;;14.20;98.60;;;;;;4947829;28;20913;-64
2023/05/27 02:24:02;;;;;;;5.60;3.70;;;14.00;98.60;;;;;;4950224;29;21027;-64
2023/05/27 02:26:28;;;;;;;7.22;4.10;;;14.10;97.90;;;;;;4950553;29;20916;-65
2023/05/27 02:28:54;;;;;;;6.30;3.50;;;14.10;97.40;;;;;;4950691;28;20197;-64
2023/05/27 02:31:19;;;;;;;7.30;4.47;;;14.20;97.20;;;;;;4947665;28;21061;-64
2023/05/27 02:33:46;;;;;;;7.00;3.80;;;;;;;;;;4949657;29;20200;-64
2023/05/27 02:36:12;;;;;;;10.70;4.93;;;14.40;97.10;;;;;;4946345;28;20197;-65
2023/05/27 02:38:38;;;;;;;9.38;4.65;;;14.10;97.60;;;;;;4950733;29;20262;-64
2023/05/27 02:41:03;;;;;;;4.83;4.00;;;14.10;98.20;;;;;;4951223;28;20255;-64
2023/05/27 02:43:29;;;;;;;6.57;4.57;;;14.00;97.90;;;;;;4950963;29;20208;-64
2023/05/27 02:45:55;;;;;;;7.57;4.90;;;14.20;98.10;;;;;;4945708;28;20274;-64
2023/05/27 02:48:20;;;;;;;6.93;4.70;;;14.20;98.50;;;;;;4947136;28;20678;-65
2023/05/27 02:50:46;;;;;;;9.53;4.47;;;14.10;98.60;;;;;;4931076;29;20220;-64
2023/05/27 02:53:12;;;;;;;11.50;5.20;;;14.10;98.90;;;;;;4948320;28;20234;-64
2023/05/27 02:55:37;;;;;;;6.57;4.87;;;14.10;98.90;;;;;;4949825;28;20197;-66
2023/05/27 02:58:06;;;;;;;10.23;5.17;;;14.20;99.00;;;;;;4946196;28;20190;-65
2023/05/27 03:00:33;;;;;;;8.30;4.68;;;14.00;99.10;;;;;;4947437;28;20186;-65
2023/05/27 03:02:58;;;;;;;6.13;4.68;;;13.90;99.20;;;;;;4950551;28;20197;-65
2023/05/27 03:05:24;;;;;;;7.87;5.80;;;14.20;99.40;;;;;;4950159;29;20685;-65
2023/05/27 03:07:50;;;;;;;7.60;4.73;;;13.90;99.50;;;;;;4929406;29;20666;-66
2023/05/27 03:10:15;;;;;;;8.80;5.07;;;13.90;99.90;;;;;;4946778;28;20228;-66
2023/05/27 03:12:41;;;;;;;5.80;4.60;;;14.00;99.90;;;;;;4967304;23;20269;-64
2023/05/27 03:15:07;;;;;;;7.63;4.17;;;13.80;99.80;;;;;;4946006;29;20212;-66
2023/05/27 03:17:37;;;;;;;5.30;4.80;;;13.60;99.90;;;;;;4953506;29;20181;-65
2023/05/27 03:20:03;;;;;;;11.88;8.07;;;13.80;99.80;;;;;;4926036;29;20472;-65
2023/05/27 03:22:29;;;;;;;8.57;5.05;;;13.40;99.90;;;;;;4947503;28;20287;-65
2023/05/27 03:24:55;;;;;;;7.80;4.90;;;13.50;99.90;;;;;;4945790;28;20324;-65
2023/05/27 03:27:20;;;;;;;5.80;4.70;;;13.60;99.90;;;;;;4931284;29;20185;-65
2023/05/27 03:29:46;;;;;;;6.17;4.23;;;13.40;99.90;;;;;;4946776;28;20208;-65
2023/05/27 03:32:12;;;;;;;9.73;4.73;;;13.80;99.90;;;;;;4948628;28;20204;-67
2023/05/27 03:34:38;;;;;;;6.23;4.63;;;13.30;99.90;;;;;;4944271;28;20188;-64
2023/05/27 03:37:03;;;;;;;8.00;5.00;;;13.40;99.90;;;;;;4945371;28;20946;-64
2023/05/27 03:39:29;;;;;;;9.00;4.40;;;13.30;99.90;;;;;;4947428;28;20216;-67
2023/05/27 03:41:54;;;;;;;8.00;5.70;;;13.40;99.90;;;;;;4946316;28;20479;-67
2023/05/27 03:44:20;;;;;;;5.83;5.30;;;13.30;99.90;;;;;;4946551;28;20298;-67
2023/05/27 03:46:46;;;;;;;9.07;5.43;;;13.30;99.90;;;;;;4944697;28;20185;-67
2023/05/27 03:49:11;;;;;;;6.67;4.97;;;13.40;99.90;;;;;;4946539;28;20231;-64
2023/05/27 03:51:37;;;;;;;9.23;4.50;;;13.50;99.90;;;;;;4945707;28;20304;-66
2023/05/27 03:54:02;;;;;;;7.53;5.00;;;13.20;99.90;;;;;;4948687;28;20188;-67
2023/05/27 03:56:28;;;;;;;6.63;5.07;;;13.40;99.90;;;;;;4949211;28;20523;-66
2023/05/27 03:58:54;;;;;;;6.40;4.83;;;13.50;99.90;;;;;;4945380;28;20733;-67
2023/05/27 04:01:20;;;;;;;8.27;4.70;;;13.30;99.90;;;;;;4929277;28;20573;-64
2023/05/27 04:03:46;;;;;;;7.13;5.60;;;13.30;99.90;;;;;;4931391;28;20440;-67
2023/05/27 04:06:11;;;;;;;9.50;5.30;;;13.20;99.90;;;;;;4948138;28;20243;-64
2023/05/27 04:08:39;;;;;;;9.27;5.00;;;13.20;99.90;;;;;;4944156;28;20196;-65
2023/05/27 04:11:04;;;;;;;5.90;4.75;;;13.40;99.90;;;;;;4945360;28;20209;-65
2023/05/27 04:13:30;;;;;;;12.67;6.20;;;13.30;99.90;;;;;;4948263;28;20677;-65
2023/05/27 04:15:57;;;;;;;7.53;4.30;;;13.50;99.90;;;;;;4944764;28;20669;-65
2023/05/27 04:18:22;;;;;;;8.02;5.20;;;13.30;99.90;;;;;;4930003;29;20220;-65
2023/05/27 04:20:50;;;;;;;6.03;4.17;;;13.60;99.90;;;;;;4943210;28;20185;-65
2023/05/27 04:23:16;;;;;;;6.53;4.20;;;13.40;99.90;;;;;;4946458;28;20204;-65
2023/05/27 04:25:41;;;;;;;10.27;4.88;;;13.30;99.90;;;;;;4947121;28;20810;-65
2023/05/27 04:28:08;;;;;;;7.27;5.13;;;13.30;99.90;;;;;;4942831;28;20182;-65
2023/05/27 04:30:34;;;;;;;6.90;4.90;;;13.40;99.90;;;;;;4928372;29;20192;-65
2023/05/27 04:33:01;;;;;;;6.10;4.80;;;13.80;99.90;;;;;;4944505;28;20224;-65
2023/05/27 04:35:26;;;;;;;8.88;4.82;;;13.30;99.90;;;;;;4947052;28;20196;-64
2023/05/27 04:37:52;;;;;;;10.13;4.93;;;13.60;99.90;;;;;;4942999;28;20784;-65
2023/05/27 04:40:19;;;;;;;13.23;5.47;;;13.40;99.90;;;;;;4943500;28;20276;-65
2023/05/27 04:42:44;;;;;;;8.55;5.25;;;13.50;99.90;;;;;;4944571;28;20215;-66
2023/05/27 04:45:11;;;;;;;10.80;4.57;;;13.80;99.90;;;;;;4924656;28;20241;-67
2023/05/27 04:47:40;;;;;;;7.57;4.55;;;13.80;99.90;;;;;;4943007;28;20185;-67
2023/05/27 04:50:08;;;;;;;8.02;4.30;;;13.80;99.90;;;;;;4944199;28;20189;-67
2023/05/27 04:52:37;;;;;;;9.43;4.35;;;13.70;99.90;;;;;;4943794;28;20205;-67
2023/05/27 04:55:04;;;;;;;9.23;4.63;;;14.10;98.80;;;;;;4926983;28;20635;-65
2023/05/27 04:57:30;;;;;;;9.80;4.03;;;14.20;98.70;;;;;;4944892;28;20271;-65
2023/05/27 05:00:17;;;;;;;9.60;4.60;;;14.30;97.90;;;;;;4939820;28;20247;-67
2023/05/27 05:02:47;;;;;;;6.97;4.25;;;14.60;97.50;;;;;;4943083;28;20572;-67
2023/05/27 05:05:13;;;;;;;7.40;4.10;;;14.50;97.00;;;;;;4940360;28;20240;-72
2023/05/27 05:07:41;;;;;;;8.45;4.22;;;14.70;96.80;;;;;;4942591;28;20185;-70
2023/05/27 05:10:07;;;;;;;5.47;3.70;;;14.60;96.80;;;;;;4943091;28;20190;-70
2023/05/27 05:12:33;;;;;;;8.88;4.50;;;15.00;96.80;;;;;;4929452;29;20224;-70
2023/05/27 05:14:59;;;;;;;8.85;4.57;;;15.10;96.40;;;;;;4942359;28;21785;-70
2023/05/27 05:17:25;;;;;;;8.18;3.42;;;15.10;95.80;;;;;;4940120;28;20197;-70
2023/05/27 05:19:55;;;;;;;7.07;3.40;;;15.00;95.60;;;;;;4924970;28;20220;-70
2023/05/27 05:22:22;;;;;;;9.20;4.32;;;15.30;95.70;;;;;;4927094;29;20201;-70
2023/05/27 05:24:51;;;;;;;6.95;4.30;;;15.50;95.20;;;;;;4941354;28;20209;-70
2023/05/27 05:27:16;;;;;;;7.75;4.03;;;15.60;95.20;;;;;;4944103;28;20192;-70
2023/05/27 05:29:42;;;;;;;10.67;4.80;;;15.40;94.50;;;;;;4939289;28;20191;-70
2023/05/27 05:32:11;;;;;;;7.47;3.90;;;15.40;94.60;;;;;;4927542;28;20288;-70
2023/05/27 05:34:39;;;;;;;9.05;4.20;;;15.50;94.50;;;;;;4943015;28;20185;-70
2023/05/27 05:37:06;;;;;;;6.43;3.70;;;15.50;94.70;;;;;;4936989;28;20197;-70
2023/05/27 05:39:32;;;;;;;7.20;3.85;;;15.60;94.50;;;;;;4929796;29;20244;-68
2023/05/27 05:41:57;;;;;;;7.80;3.97;;;15.90;94.20;;;;;;4945988;28;20232;-68
2023/05/27 05:44:24;;;;;;;10.40;3.90;;;15.70;94.10;;;;;;4943449;28;20453;-68
2023/05/27 05:46:49;;;;;;;8.88;4.28;;;16.00;94.00;;;;;;4945473;28;20185;-67
2023/05/27 05:49:15;;;;;;;7.83;4.40;;;15.90;93.70;;;;;;4929081;29;20189;-65
2023/05/27 05:51:41;;;;;;;11.67;4.57;;;15.60;93.20;;;;;;4945540;28;20244;-68
2023/05/27 05:54:07;;;;;;;8.90;4.60;;;15.80;93.00;;;;;;4947030;28;20515;-68
2023/05/27 05:56:33;;;;;;;7.63;4.10;;;16.20;93.20;;;;;;4945053;28;20673;-65
2023/05/27 05:58:58;;;;;;;6.45;4.00;;;16.20;92.80;;;;;;4944062;28;20220;-65
2023/05/27 06:01:26;;;;;;;10.97;4.73;;;16.10;92.80;;;;;;4949197;28;20193;-65
2023/05/27 06:03:56;;;;;;;7.53;4.10;;;16.30;92.30;;;;;;4942783;28;20255;-64
2023/05/27 06:06:22;;;;;;;10.13;4.43;;;16.40;92.40;;;;;;4930436;28;20336;-65
2023/05/27 06:08:47;;;;;;;9.63;4.40;;;16.50;92.50;;;;;;4944457;28;21050;-73
2023/05/27 06:11:13;;;;;;;10.73;3.57;;;16.50;92.40;;;;;;4928029;28;20315;-68
2023/05/27 06:13:40;;;;;;;14.10;4.67;;;16.70;92.60;;;;;;4946639;28;20196;-71
2023/05/27 06:16:06;;;;;;;8.73;4.40;;;16.70;91.90;;;;;;4948794;28;20192;-66
2023/05/27 06:18:31;;;;;;;7.80;4.00;;;16.80;91.80;;;;;;4946565;28;20253;-71
2023/05/27 06:20:57;;;;;;;8.20;4.40;;;16.90;91.50;;;;;;4934968;28;20444;-87
2023/05/27 06:23:22;;;;;;;10.57;4.80;;;17.00;91.70;;;;;;4932080;28;20169;-71
2023/05/27 06:25:48;;;;;;;10.13;3.77;;;17.20;91.70;;;;;;4931714;28;20662;-71
2023/05/27 06:28:14;;;;;;;8.70;5.00;;;17.00;91.90;;;;;;4948390;28;20193;-71
2023/05/27 06:30:40;;;;;;;8.07;4.53;;;16.80;91.40;;;;;;4927889;29;20186;-70
2023/05/27 06:33:06;;;;;;;7.57;4.63;;;17.00;91.70;;;;;;4943820;28;20216;-70
2023/05/27 06:35:32;;;;;;;8.35;4.40;;;16.90;91.60;;;;;;4946807;28;20801;-70
2023/05/27 06:37:59;;;;;;;8.63;4.30;;;17.20;91.40;;;;;;4945079;28;20240;-70
2023/05/27 06:40:24;;;;;;;6.63;4.00;;;17.20;91.20;;;;;;4944869;28;20479;-71
2023/05/27 06:42:50;;;;;;;7.70;4.20;;;17.40;91.20;;;;;;4945475;28;20283;-70
2023/05/27 06:45:16;;;;;;;7.40;3.97;;;17.50;90.80;;;;;;4941542;29;20647;-70
2023/05/27 06:47:41;;;;;;;16.47;4.57;;;17.60;90.50;;;;;;4946662;28;20185;-71
2023/05/27 06:50:07;;;;;;;10.50;4.93;;;17.80;90.10;;;;;;4928114;28;20194;-70
2023/05/27 06:52:33;;;;;;;10.70;5.13;;;17.70;89.90;;;;;;4929139;29;20209;-71
2023/05/27 06:54:59;;;;;;;9.23;4.60;;;17.90;89.70;;;;;;4943615;28;20958;-71
2023/05/27 06:57:24;;;;;;;10.80;4.87;;;17.90;89.70;;;;;;4946033;28;20275;-68
2023/05/27 06:59:50;;;;;;;9.30;5.00;;;18.20;89.80;;;;;;4940039;29;20220;-70
2023/05/27 07:02:15;;;;;;;6.47;4.10;;;18.50;88.60;;;;;;4940399;28;20212;-69
2023/05/27 07:04:41;;;;;;;6.70;4.27;;;18.70;88.10;;;;;;4947444;28;20193;-70
2023/05/27 07:07:07;;;;;;;6.57;4.07;;;19.70;85.70;;;;;;4944364;28;20185;-71
2023/05/27 07:09:32;;;;;;;8.97;6.13;;;21.60;80.70;;;;;;4942460;28;20196;-69
2023/05/27 07:11:58;;;;;;;7.90;4.30;;;22.40;74.00;;;;;;4929454;29;20217;-70
2023/05/27 07:14:24;;;;;;;6.77;4.23;;;23.60;70.70;;;;;;4947945;28;20187;-70
2023/05/27 07:16:52;;;;;;;5.83;4.20;;;24.40;67.20;;;;;;4945111;28;20458;-71
2023/05/27 07:19:17;;;;;;;8.73;4.50;;;25.60;63.90;;;;;;4928940;29;20790;-69
2023/05/27 07:21:43;;;;;;;8.17;4.40;;;26.00;61.40;;;;;;4940444;28;20478;-70
2023/05/27 07:24:08;;;;;;;7.43;4.47;;;27.30;58.60;;;;;;4927480;29;20193;-72
2023/05/27 07:26:34;;;;;;;6.00;4.40;;;28.40;55.70;;;;;;4948927;28;20212;-75
2023/05/27 07:29:00;;;;;;;8.30;4.87;;;28.20;53.40;;;;;;4944293;28;20221;-76
2023/05/27 07:31:27;;;;;;;8.37;4.77;;;28.20;55.20;;;;;;4943830;28;20594;-73
2023/05/27 07:33:52;;;;;;;7.73;4.37;;;29.50;52.30;;;;;;4946374;28;20855;-74
2023/05/27 07:36:18;;;;;;;7.67;4.10;;;31.60;48.50;;;;;;4929134;29;20448;-75
2023/05/27 07:38:44;;;;;;;6.30;3.80;;;30.00;49.40;;;;;;4929176;29;20240;-68
2023/05/27 07:41:10;;;;;;;7.43;5.20;;;31.90;47.60;;;;;;4940904;28;20753;-71
2023/05/27 07:43:36;;;;;;;10.43;5.37;;;31.00;45.80;;;;;;4943876;28;20177;-69
2023/05/27 07:46:01;;;;;;;8.50;4.67;;;31.10;46.00;;;;;;4939282;28;20449;-69
2023/05/27 07:48:28;;;;;;;6.87;4.73;;;32.10;45.10;;;;;;4943197;28;20271;-68
2023/05/27 07:50:54;;;;;;;7.37;4.53;;;32.80;43.20;;;;;;4929016;29;20212;-72
2023/05/27 07:53:19;;;;;;;5.67;4.00;;;32.40;43.10;;;;;;4942102;28;20445;-72
2023/05/27 07:55:45;;;;;;;7.00;4.93;;;33.70;41.60;;;;;;4943387;29;20193;-70
2023/05/27 07:58:10;;;;;;;8.03;5.00;;;33.60;40.70;;;;;;4946308;28;20205;-77
2023/05/27 08:00:36;;;;;;;7.03;4.73;;;34.30;40.90;;;;;;4947750;28;20561;-79
2023/05/27 08:03:02;;;;;;;6.53;4.03;;;32.50;41.00;;;;;;4928509;28;20205;-74
2023/05/27 08:05:27;;;;;;;9.03;5.00;;;33.30;41.50;;;;;;4947392;28;20173;-77
2023/05/27 08:07:53;;;;;;;6.10;4.20;;;33.20;39.80;;;;;;4945350;28;20188;-79
2023/05/27 08:10:18;;;;;;;10.60;4.87;;;33.40;39.80;;;;;;4946010;28;20317;-77
2023/05/27 08:12:44;;;;;;;5.20;4.47;;;33.70;39.90;;;;;;4927199;29;20708;-72
2023/05/27 08:15:09;;;;;;;7.67;4.93;;;33.70;38.70;;;;;;4941579;28;20195;-75
2023/05/27 08:17:35;;;;;;;6.40;5.00;;;33.80;38.70;;;;;;4944739;29;20200;-79
2023/05/27 08:20:01;;;;;;;9.93;5.27;;;32.30;40.00;;;;;;4930605;28;20213;-75
2023/05/27 08:22:26;;;;;;;6.17;4.93;;;32.10;41.10;;;;;;4944402;28;20590;-71
2023/05/27 08:24:54;;;;;;;7.50;5.27;;;33.30;39.40;;;;;;4945620;28;20671;-76
2023/05/27 08:27:20;;;;;;;6.80;4.70;;;32.80;40.10;;;;;;4948260;28;20184;-69
2023/05/27 08:29:46;;;;;;;7.90;5.20;;;32.70;38.80;;;;;;4945981;28;20444;-74
2023/05/27 08:32:12;;;;;;;6.50;4.87;;;32.30;39.20;;;;;;4928590;28;20472;-73
2023/05/27 08:34:38;;;;;;;8.47;5.00;;;31.80;40.70;;;;;;4947447;28;20204;-76
2023/05/27 08:37:05;;;;;;;9.87;6.00;;;32.00;41.20;;;;;;4923466;28;20271;-71
2023/05/27 08:39:31;;;;;;;6.00;5.40;;;33.00;40.10;;;;;;4927737;28;20474;-72
2023/05/27 08:41:57;;;;;;;8.10;5.63;;;33.30;39.40;;;;;;4947894;28;20460;-73
2023/05/27 08:44:23;;;;;;;11.63;5.47;;;33.40;38.80;;;;;;4932178;29;20242;-73
2023/05/27 08:46:50;;;;;;;6.20;5.10;;;31.40;39.40;;;;;;4948205;28;20605;-72
2023/05/27 08:49:16;;;;;;;6.90;5.50;;;31.60;41.10;;;;;;4945109;29;20444;-73
2023/05/27 08:51:44;;;;;;;7.03;5.23;;;31.70;40.90;;;;;;4945645;28;20563;-74
2023/05/27 08:54:10;;;;;;;6.67;5.20;;;32.80;40.00;;;;;;4940806;28;20557;-73
2023/05/27 08:56:39;;;;;;;8.03;5.00;;;33.70;38.90;;;;;;4945425;28;20535;-72
2023/05/27 08:59:05;;;;;;;6.03;4.80;;;33.70;38.40;;;;;;4944310;28;20209;-74
2023/05/27 09:01:32;;;;;;;6.73;4.67;;;34.00;37.90;;;;;;4929268;29;20457;-76
2023/05/27 09:03:58;;;;;;;8.23;7.10;;;33.60;37.90;;;;;;4926217;28;20436;-71
2023/05/27 09:06:24;;;;;;;9.33;5.63;;;33.90;38.30;;;;;;4943663;29;20445;-75
2023/05/27 09:08:50;;;;;;;7.43;4.40;;;34.40;37.00;;;;;;4931616;28;21019;-75
2023/05/27 09:11:35;;;;;;;5.63;4.80;;;33.70;37.80;;;;;;4949114;28;20209;-76
2023/05/27 09:14:01;;;;;;;7.77;5.00;;;34.70;37.20;;;;;;4925812;28;20282;-75
2023/05/27 09:16:26;;;;;;;6.60;5.30;;;34.40;36.50;;;;;;4930110;29;20531;-75
2023/05/27 09:18:55;;;;;;;5.77;5.00;;;35.30;36.40;;;;;;4941549;28;20197;-75
2023/05/27 09:21:26;;;;;;;12.80;9.40;;;34.90;35.60;;;;;;4946327;29;20197;-75
2023/05/27 09:23:56;;;;;;;7.97;5.40;;;35.20;36.10;;;;;;4945516;28;20447;-75
2023/05/27 09:26:23;;;;;;;5.57;4.93;;;35.10;36.40;;;;;;4947612;29;21117;-75
2023/05/27 09:28:48;;;;;;;9.80;5.20;;;35.00;36.30;;;;;;4930740;29;20448;-76
2023/05/27 09:31:15;;;;;;;8.03;5.60;;;35.50;35.60;;;;;;4944627;28;21189;-75
2023/05/27 09:33:40;;;;;;;6.60;5.13;;;34.80;36.20;;;;;;4948019;28;20197;-76
2023/05/27 09:36:08;;;;;;;7.77;6.40;;;34.20;36.40;;;;;;4930070;28;20614;-76
2023/05/27 09:38:35;;;;;;;7.53;5.67;;;33.50;37.80;;;;;;4948515;28;20213;-76
2023/05/27 09:41:02;;;;;;;7.43;5.73;;;34.40;37.10;;;;;;4931113;28;20432;-75
2023/05/27 09:43:29;;;;;;;7.70;5.10;;;34.20;36.50;;;;;;4951429;28;20531;-75
2023/05/27 09:46:02;;;;;;;9.43;5.73;;;34.80;36.90;;;;;;4950019;28;20475;-75
2023/05/27 09:48:31;;;;;;;7.20;5.50;;;33.40;37.00;;;;;;4950674;29;20436;-78
2023/05/27 09:50:57;;;;;;;7.70;6.90;;;33.60;37.50;;;;;;4949916;28;20463;-78
2023/05/27 09:53:25;;;;;;;6.10;5.50;;;33.70;37.80;;;;;;4950998;28;20452;-75
2023/05/27 09:55:53;;;;;;;6.00;5.30;;;34.60;37.30;;;;;;4950508;28;20448;-75
2023/05/27 09:58:20;;;;;;;5.20;4.67;;;35.30;36.00;;;;;;4931473;29;20475;-75
2023/05/27 10:00:48;;;;;;;5.83;5.27;;;34.60;36.30;;;;;;4930667;29;21498;-75
2023/05/27 10:03:16;;;;;;;6.67;5.70;;;34.70;36.20;;;;;;4934714;29;20448;-75
2023/05/27 10:05:43;;;;;;;8.33;6.50;;;34.20;36.70;;;;;;4945913;28;20441;-76
2023/05/27 10:08:08;;;;;;;7.13;5.53;;;33.70;37.40;;;;;;4948454;28;20526;-75
2023/05/27 10:10:34;;;;;;;7.57;5.90;;;33.90;37.10;;;;;;4950472;28;20490;-75
2023/05/27 10:13:01;;;;;;;7.30;5.97;;;33.70;37.30;;;;;;4945467;28;20279;-75
2023/05/27 10:15:35;;;;;;;7.07;6.37;;;33.20;37.70;;;;;;4945597;28;20667;-75
2023/05/27 10:18:09;;;;;;;5.77;5.17;;;33.50;37.40;;;;;;4929304;28;20439;-76
2023/05/27 10:20:43;;;;;;;6.50;5.60;;;32.70;38.00;;;;;;4928738;29;21056;-75
2023/05/27 10:23:30;;;;;;;6.87;5.87;;;32.40;38.90;;;;;;4930318;29;20469;-76
2023/05/27 10:26:00;;;;;;;7.10;5.53;;;30.80;40.20;;;;;;4949605;29;20533;-75
2023/05/27 10:28:39;;;;;;;5.97;5.10;;;29.50;41.70;;;;;;4947347;28;20447;-75
2023/05/27 10:31:10;;;;;;;7.27;6.50;;;28.70;43.70;;;;;;4940635;28;20665;-75
2023/05/27 10:33:37;;;;;;;7.80;6.20;;;28.10;45.00;;;;;;4945153;28;20449;-75
2023/05/27 10:36:08;;;;;;;6.17;5.57;;;27.40;46.20;;;;;;4940714;28;20484;-75
2023/05/27 10:38:37;;;;;;;6.23;5.63;;;27.50;46.10;;;;;;4941374;28;21014;-75
2023/05/27 10:41:06;;;;;;;6.30;5.70;;;27.50;45.90;;;;;;4942296;28;20450;-75
2023/05/27 10:43:33;;;;;;;9.80;5.83;;;27.40;46.30;;;;;;4947945;28;20856;-75
2023/05/27 10:46:04;;;;;;;5.83;5.20;;;27.60;46.20;;;;;;4928391;29;20448;-75
2023/05/27 10:48:33;;;;;;;6.57;5.87;;;28.00;46.00;;;;;;4928633;28;20436;-75
2023/05/27 10:50:59;;;;;;;6.87;5.87;;;28.90;44.00;;;;;;4945409;28;20588;-75
2023/05/27 10:53:27;;;;;;;6.40;5.80;;;29.20;43.20;;;;;;4946083;28;20548;-75
2023/05/27 10:55:52;;;;;;;8.10;5.60;;;29.20;43.60;;;;;;4947094;28;20447;-74
2023/05/27 10:58:19;;;;;;;7.57;5.90;;;28.90;44.10;;;;;;4928401;28;20453;-75
2023/05/27 11:00:48;;;;;;;6.97;5.77;;;29.50;43.50;;;;;;4927651;29;20193;-76
2023/05/27 11:03:21;;;;;;;7.83;5.70;;;29.50;44.00;;;;;;4930763;28;20495;-75
2023/05/27 11:05:47;;;;;;;6.77;6.00;;;29.80;42.90;;;;;;4951578;28;20509;-75
2023/05/27 11:08:13;;;;;;;6.07;5.37;;;30.80;42.20;;;;;;4942970;28;20566;-75
2023/05/27 11:10:42;;;;;;;6.13;5.53;;;30.40;41.60;;;;;;4945193;28;20450;-75
2023/05/27 11:13:08;;;;;;;8.53;5.47;;;31.10;40.80;;;;;;4943960;28;20521;-75
2023/05/27 11:15:33;;;;;;;7.27;5.57;;;31.10;40.60;;;;;;4948593;28;20891;-75
2023/05/27 11:18:03;;;;;;;6.27;5.33;;;31.50;39.90;;;;;;4929643;28;20471;-75
2023/05/27 11:20:38;;;;;;;7.67;5.60;;;31.90;38.60;;;;;;4930576;29;20212;-75
2023/05/27 11:23:04;;;;;;;7.07;5.80;;;31.80;38.30;;;;;;4945975;28;20849;-76
2023/05/27 11:25:43;;;;;;;6.03;5.43;;;31.60;38.80;;;;;;4926977;29;20448;-75
2023/05/27 11:28:19;;;;;;;7.70;5.53;;;30.90;39.50;;;;;;4925484;28;20533;-75
2023/05/27 11:30:44;;;;;;;6.17;5.67;;;30.90;40.10;;;;;;4928631;28;20452;-75
2023/05/27 11:33:10;;;;;;;7.37;6.67;;;31.20;39.60;;;;;;4927825;28;20490;-75
2023/05/27 11:35:36;;;;;;;6.10;5.30;;;31.30;39.20;;;;;;4927060;29;20212;-75
2023/05/27 11:38:02;;;;;;;6.60;5.60;;;30.80;39.20;;;;;;4930253;28;20660;-75
2023/05/27 11:40:38;;;;;;;6.13;5.53;;;29.70;40.30;;;;;;4931974;29;20265;-75
2023/05/27 11:43:03;;;;;;;7.23;5.67;;;29.60;41.10;;;;;;4945255;28;20474;-75
2023/05/27 11:45:31;;;;;;;6.00;5.40;;;28.80;41.80;;;;;;4924895;29;20898;-75
2023/05/27 11:47:56;;;;;;;5.53;5.03;;;28.40;42.60;;;;;;4943129;28;20206;-71
2023/05/27 11:50:24;;;;;;;6.30;5.70;;;28.00;43.40;;;;;;4943075;28;21198;-71
2023/05/27 11:52:54;;;;;;;7.97;5.83;;;27.50;44.20;;;;;;4945077;28;20238;-71
2023/05/27 11:55:20;;;;;;;6.73;5.53;;;27.30;44.80;;;;;;4944949;28;20534;-71
2023/05/27 11:57:46;;;;;;;6.03;5.33;;;27.10;45.30;;;;;;4944630;28;20537;-72
2023/05/27 12:00:12;;;;;;;6.50;5.40;;;26.80;45.00;;;;;;4944426;28;20527;-72
2023/05/27 12:02:37;;;;;;;7.70;6.43;;;26.40;45.80;;;;;;4946232;28;20271;-72
2023/05/27 12:05:06;;;;;;;6.23;5.60;;;26.00;46.20;;;;;;4941483;28;20460;-72
2023/05/27 12:07:31;;;;;;;6.53;5.40;;;25.80;47.20;;;;;;4941595;28;20184;-73
2023/05/27 12:09:57;;;;;;;6.70;6.00;;;25.60;46.80;;;;;;4946695;28;20510;-72
2023/05/27 12:12:22;;;;;;;6.17;5.63;;;25.40;47.30;;;;;;4945493;28;20622;-73
2023/05/27 12:14:48;;;;;;;8.17;6.50;;;25.60;47.00;;;;;;4945286;28;20512;-72
2023/05/27 12:17:14;;;;;;;10.50;8.77;;;25.50;46.50;;;;;;4944419;28;20220;-72
2023/05/27 12:19:39;;;;;;;6.93;5.80;;;25.50;47.30;;;;;;4927211;29;20222;-72
2023/05/27 12:22:05;;;;;;;5.90;5.40;;;25.70;46.30;;;;;;4942303;28;20218;-72
2023/05/27 12:24:30;;;;;;;7.63;6.57;;;25.60;46.80;;;;;;4946374;28;20283;-72
2023/05/27 12:26:56;;;;;;;6.30;5.70;;;25.60;47.20;;;;;;4945175;28;20223;-72
2023/05/27 12:29:24;;;;;;;8.47;6.53;;;25.40;47.10;;;;;;4943476;28;20187;-72
2023/05/27 12:31:50;;;;;;;6.43;5.83;;;25.20;46.50;;;;;;4937493;28;20475;-72
2023/05/27 12:34:15;;;;;;;9.67;6.40;;;25.30;47.10;;;;;;4945389;28;20462;-72
2023/05/27 12:36:41;;;;;;;6.73;6.03;;;25.20;47.30;;;;;;4942734;28;20448;-72
2023/05/27 12:39:07;;;;;;;8.43;6.50;;;25.30;47.90;;;;;;4945284;28;20216;-72
2023/05/27 12:41:32;;;;;;;6.83;5.40;;;25.40;47.50;;;;;;4944876;28;20510;-72
2023/05/27 12:43:59;;;;;;;7.53;6.20;;;25.50;47.60;;;;;;4927112;29;20179;-72